Mansfield, OH (44901)

9:47 PM EST on February 13, 2016 (GMT -0500)
Fox Road, Lexington, Ohio | | Change Station
CLOSE
Current Station
Personal Weather Station
Location: Lexington, OH
Elevation: 1412 ft
Nearby Weather Stations
Active Advisory: Wind Chill Advisory Active Notice: Public Information Statement

Elev 1412 ft 40.67 °N, 82.60 °W | Updated 2 seconds ago

Overcast
Overcast
10.2 °F
Feels Like 10 °F
N
2.9
Wind Variable Wind from WNW
Gusts 6.0 mph

Today
High -- | Low -- °F
--% Chance of Precip.
Yesterday
High -- | Low -- °F
Precip. -- in
Pressure 30.41 in
Visibility 2.5 miles
Clouds Few 1200 ft
Mostly Cloudy 3100 ft
Overcast 3800 ft
Windchill 10 °F
Dew Point 8 °F
Humidity 89%
Rainfall 0.00 in
Snow Depth Not available.
7:27 AM 6:02 PM
Waxing Crescent, 36% visible
SPECI KMFD 140244Z 25004KT 2 1/2SM -SN BR FEW012 BKN031 OVC038 M12/M14 A3041 RMK AO2 P0000 T11221144
Pressure 30.41 in
Visibility 2.5 miles
Clouds Few 1200 ft
Mostly Cloudy 3100 ft
Overcast 3800 ft
Windchill 10 °F
Dew Point 8 °F
Humidity 89%
Rainfall 0.00 in
Snow Depth Not available.
7:27 AM 6:02 PM
Waxing Crescent, 36% visible
SPECI KMFD 140244Z 25004KT 2 1/2SM -SN BR FEW012 BKN031 OVC038 M12/M14 A3041 RMK AO2 P0000 T11221144

10-Day Weather Forecast

Almanac

Astronomy

Feb. 13, 2016 Rise Set
Actual Time
Civil Twilight
Nautical Twilight
Astronomical Twilight
Moon
Length of Visible Light
Length of Day
Tomorrow will be .
, % of the Moon is Illuminated

Today's Extremes

State Highs State Lows

Community

WunderPhotos

Upload Photos

1,892,731 photos uploaded!

WunderBlog® & News

Nearby

Air Quality

  Air Quality AQ Index Pollutant
Not available.

Snow Depth

Station Depth Elevation

Earthquake Activity

City Distance Mag. Time & Date
Minimum magnitude displayed is 2.5.

Coastal Water Temperatures

Place Temperature

Stations

Nearby Weather Stations

Station Location Temp. Windchill Dew Point Humidity Wind Precip. Elev Updated Type
                   

Watches & Warnings

Wind Chill Advisory
Issued: 8:22 PM EST Feb. 13, 2016 – National Weather Service

... Wind Chill Advisory remains in effect until 10 am EST Sunday...

* wind chill... as low as 14 below due to temperatures 1 to 10
above... and winds northwest 10 to 20 mph.

* Impacts... dangerous wind chills can result in frostbite or
hypothermia in just a few minutes. Frigid temperatures could
freeze water pipes.

* Winds... northwest 10 to 20 mph with.

* Temperatures... 1 to 10 above.

Precautionary/preparedness actions... a Wind Chill Advisory is
issued when strong wind will combine with cold temperatures to
create dangerously cold conditions for exposed skin. The wind
will make it feel like it is 10 degrees below zero or colder for
a period of several hours. If you will be outdoors use common
sense and dress warmly... making sure that all exposed skin is
covered. Stay tuned to weather radio for further details or
updates.